Kezdőlap
METAR-TAF:

METAR-TAF

Repülőterek :

Kajaani, Finnország

földrajzi szélesség: 64-17N, földrajzi hosszúság: 027-41E, magasság: 143 m

Jelenlegi meteorológiai megfigyelések

A jelentés 35 perccel ezelõtt készült, 05:50 UTC
Nyugat-délnyugati szél 6 kt, délnyugati és nyugat-északnyugati között változik
Hőmérséklet 11°C
Páratartalom 54%
Légköri nyomás 1024 hPa
Látótávolság 10 km, vagy több
felhőtlen 1500 m magasságban, és nincs gomolyfelhõ

METAR: EFKI 240550Z AUTO 25006KT 220V290 CAVOK 11/02 Q1024

Idő: 09:25 (06:25 UTC)

Előrejelzés

A jelentés 57 perccel ezelõtt készült, 05:28 UTC
Az előrejelzés 24-én 06 óra UTC és 24-én 15 óra UTC között érvényes
Nyugat-délnyugati szél 7 kt
Látótávolság 10 km, vagy több
felhőtlen 1500 m magasságban, és nincs gomolyfelhõ

TAF: EFKI 240528Z 2406/2415 24007KT CAVOK

Meteorológiai megfigyelések és előrejelzések több, mint 4000 repülőtéren (METAR és TAF jelentéseket).

A térképen piros és sárga pontok jelzik az elérhető meteorológiai állomásokat.

Mozgassa az egeret a pont fölött, hogy megjelenjen az állomás neve.

Azután kattintson az időjárási megfigyelések és előrejelzések megtekintéséhez.

A térkép megváltoztatása: kattintson a fekete keresztel jelölt zöld gombra ráközelítéshez, a vonallal jelölt zöld gombra távolításhoz, vagy a zöld nyilakra a szomszédos térképek eléréséhez.


METAR-TAF: